createdAt,value
2022-11-26T00:00:16.569Z,1.60
2022-11-26T00:01:16.587Z,1.42
2022-11-26T00:02:16.700Z,1.50
2022-11-26T00:03:16.578Z,1.44
2022-11-26T00:04:16.526Z,1.46
2022-11-26T00:05:16.513Z,1.42
2022-11-26T00:06:16.504Z,1.38
2022-11-26T00:07:16.553Z,1.39
2022-11-26T00:08:16.485Z,1.36
2022-11-26T00:09:16.472Z,1.54
2022-11-26T00:10:16.457Z,1.29
2022-11-26T00:11:16.450Z,1.47
2022-11-26T00:12:16.446Z,1.28
2022-11-26T00:13:16.433Z,1.31
2022-11-26T00:14:16.427Z,1.46
2022-11-26T00:15:16.412Z,1.26
2022-11-26T00:16:16.512Z,1.32
2022-11-26T00:17:16.408Z,1.32
2022-11-26T00:18:16.399Z,1.28
2022-11-26T00:19:16.375Z,1.43
2022-11-26T00:20:16.399Z,1.24
2022-11-26T00:21:16.345Z,1.28
2022-11-26T00:22:16.329Z,1.13
2022-11-26T00:23:16.343Z,1.16
2022-11-26T00:24:16.312Z,1.04
2022-11-26T00:25:16.306Z,1.16
2022-11-26T00:26:16.299Z,1.13
2022-11-26T00:27:16.279Z,1.08
2022-11-26T00:28:16.261Z,1.17
2022-11-26T00:29:16.261Z,1.00
2022-11-26T00:30:16.250Z,1.04
2022-11-26T00:31:16.287Z,1.20
2022-11-26T00:32:16.227Z,1.17
2022-11-26T00:33:16.210Z,1.18
2022-11-26T00:34:16.231Z,1.17
2022-11-26T00:35:16.276Z,1.24
2022-11-26T00:36:16.181Z,1.18
2022-11-26T00:37:16.169Z,1.21
2022-11-26T00:38:16.158Z,1.10
2022-11-26T00:39:16.144Z,1.16
2022-11-26T00:40:16.135Z,1.08
2022-11-26T00:41:16.147Z,1.11
2022-11-26T00:42:16.112Z,1.14
2022-11-26T00:43:16.108Z,1.07
2022-11-26T00:44:16.088Z,1.08
2022-11-26T00:45:16.081Z,1.16
2022-11-26T00:46:16.123Z,1.08
2022-11-26T00:47:16.082Z,1.17
2022-11-26T00:48:16.049Z,1.16
2022-11-26T00:49:16.095Z,1.16
2022-11-26T00:50:16.051Z,1.07
2022-11-26T00:51:16.011Z,1.18
2022-11-26T00:52:16.003Z,1.24
2022-11-26T00:53:16.015Z,1.13
2022-11-26T00:54:15.981Z,1.07
2022-11-26T00:55:15.976Z,1.02
2022-11-26T00:56:15.962Z,0.96
2022-11-26T00:57:15.951Z,1.11
2022-11-26T00:58:15.935Z,1.18
2022-11-26T00:59:15.949Z,1.16
2022-11-26T01:00:15.914Z,1.13
2022-11-26T01:01:15.972Z,1.10
2022-11-26T01:02:15.973Z,1.25
2022-11-26T01:03:15.890Z,1.04
2022-11-26T01:04:15.870Z,1.02
2022-11-26T01:05:15.862Z,1.17
2022-11-26T01:06:15.876Z,1.11
2022-11-26T01:07:15.895Z,1.07
2022-11-26T01:08:15.831Z,1.02
2022-11-26T01:09:15.829Z,1.18
2022-11-26T01:10:15.808Z,1.07
2022-11-26T01:11:15.803Z,1.21
2022-11-26T01:12:15.796Z,1.13
2022-11-26T01:13:15.794Z,1.08
2022-11-26T01:14:15.767Z,1.07
2022-11-26T01:15:15.762Z,0.96
2022-11-26T01:16:15.814Z,1.08
2022-11-26T01:17:15.737Z,1.20
2022-11-26T01:18:15.721Z,0.95
2022-11-26T01:19:15.720Z,1.04
2022-11-26T01:20:15.697Z,0.92
2022-11-26T01:21:15.700Z,1.02
2022-11-26T01:22:15.706Z,0.95
2022-11-26T01:23:15.671Z,0.98
2022-11-26T01:24:15.658Z,1.10
2022-11-26T01:25:15.659Z,1.10
2022-11-26T01:26:15.636Z,0.95
2022-11-26T01:27:15.629Z,1.07
2022-11-26T01:28:15.616Z,1.08
2022-11-26T01:29:15.605Z,1.00
2022-11-26T01:30:15.593Z,0.92
2022-11-26T01:31:15.691Z,1.04
2022-11-26T01:32:15.573Z,0.95
2022-11-26T01:33:15.562Z,1.04
2022-11-26T01:34:15.562Z,0.93
2022-11-26T01:35:15.541Z,1.04
2022-11-26T01:36:15.540Z,0.98
2022-11-26T01:37:15.525Z,1.06
2022-11-26T01:38:15.539Z,0.99
2022-11-26T01:39:15.555Z,1.08
2022-11-26T01:40:15.484Z,0.98
2022-11-26T01:41:15.473Z,1.04
2022-11-26T01:42:15.473Z,1.11
2022-11-26T01:43:15.449Z,1.13
2022-11-26T01:44:15.443Z,1.07
2022-11-26T01:45:15.441Z,0.98
2022-11-26T01:46:15.480Z,0.98
2022-11-26T01:47:15.407Z,1.06
2022-11-26T01:48:15.393Z,1.11
2022-11-26T01:49:15.400Z,1.10
2022-11-26T01:50:15.371Z,0.99
2022-11-26T01:51:15.391Z,1.07
2022-11-26T01:52:15.354Z,1.04
2022-11-26T01:53:15.339Z,0.88
2022-11-26T01:54:15.356Z,1.08
2022-11-26T01:55:15.320Z,1.07
2022-11-26T01:56:15.311Z,1.07
2022-11-26T01:57:15.367Z,1.10
2022-11-26T01:58:15.304Z,1.11
2022-11-26T01:59:15.281Z,0.96
2022-11-26T02:00:15.280Z,0.96
2022-11-26T02:01:15.368Z,0.89
2022-11-26T02:02:15.382Z,0.92
2022-11-26T02:03:22.775Z,0.90
2022-11-26T02:04:22.757Z,0.88
2022-11-26T02:05:22.737Z,0.82
2022-11-26T02:06:22.719Z,0.84
2022-11-26T02:07:22.757Z,0.78
2022-11-26T02:08:22.720Z,0.78
2022-11-26T02:09:23.754Z,0.78
2022-11-26T02:10:22.682Z,0.74
2022-11-26T02:11:22.663Z,0.71
2022-11-26T02:12:22.680Z,0.60
2022-11-26T02:13:22.653Z,0.62
2022-11-26T02:14:22.653Z,0.75
2022-11-26T02:15:15.108Z,0.68
2022-11-26T02:16:15.155Z,0.72
2022-11-26T02:17:15.082Z,0.68
2022-11-26T02:18:15.071Z,0.62
2022-11-26T02:19:15.084Z,0.60
2022-11-26T02:20:15.047Z,0.67
2022-11-26T02:21:15.043Z,0.64
2022-11-26T02:22:15.027Z,0.62
2022-11-26T02:23:15.019Z,0.72
2022-11-26T02:24:15.008Z,0.63
2022-11-26T02:25:15.032Z,0.45
2022-11-26T02:26:15.032Z,0.60
2022-11-26T02:27:14.975Z,0.67
2022-11-26T02:28:14.962Z,0.49
2022-11-26T02:29:14.955Z,0.45
2022-11-26T02:30:14.948Z,0.56
2022-11-26T02:31:14.986Z,0.57
2022-11-26T02:32:14.936Z,0.59
2022-11-26T02:33:14.909Z,0.51
2022-11-26T02:34:14.917Z,0.38
2022-11-26T02:35:14.888Z,0.40
2022-11-26T02:36:14.886Z,0.33
2022-11-26T02:37:14.873Z,0.30
2022-11-26T02:38:14.861Z,0.28
2022-11-26T02:39:14.855Z,0.34
2022-11-26T02:40:14.900Z,0.30
2022-11-26T02:41:14.849Z,0.20
2022-11-26T02:42:14.821Z,0.22
2022-11-26T02:43:14.803Z,0.22
2022-11-26T02:44:14.809Z,0.13
2022-11-26T02:45:14.784Z,0.13
2022-11-26T02:46:14.948Z,0.12
2022-11-26T02:47:14.758Z,0.08
2022-11-26T02:48:14.747Z,0.16
2022-11-26T02:49:14.741Z,0.13
2022-11-26T02:50:14.730Z,0.25
2022-11-26T02:51:14.716Z,0.25
2022-11-26T02:52:14.775Z,0.20
2022-11-26T02:53:14.707Z,0.28
2022-11-26T02:54:14.690Z,0.22
2022-11-26T02:55:14.679Z,0.33
2022-11-26T02:56:14.672Z,0.28
2022-11-26T02:57:14.683Z,0.20
2022-11-26T02:58:14.692Z,0.28
2022-11-26T02:59:14.630Z,0.19
2022-11-26T03:00:14.618Z,0.17
2022-11-26T03:01:14.793Z,0.28
2022-11-26T03:02:14.598Z,0.23
2022-11-26T03:03:14.588Z,0.38
2022-11-26T03:04:14.689Z,0.31
2022-11-26T03:05:14.569Z,0.34
2022-11-26T03:06:14.555Z,0.38
2022-11-26T03:07:14.859Z,0.20
2022-11-26T03:08:14.534Z,0.41
2022-11-26T03:09:14.523Z,0.30
2022-11-26T03:10:14.566Z,0.38
2022-11-26T03:11:14.552Z,0.52
2022-11-26T03:12:14.659Z,0.26
2022-11-26T03:13:14.510Z,0.35
2022-11-26T03:14:14.471Z,0.40
2022-11-26T03:15:14.463Z,0.45
2022-11-26T03:16:14.545Z,0.48
2022-11-26T03:17:14.462Z,0.48
2022-11-26T03:18:14.441Z,0.45
2022-11-26T03:19:14.421Z,0.56
2022-11-26T03:20:14.426Z,0.62
2022-11-26T03:21:14.413Z,0.52
2022-11-26T03:22:14.392Z,0.48
2022-11-26T03:23:14.380Z,0.48
2022-11-26T03:24:14.362Z,0.53
2022-11-26T03:25:14.365Z,0.57
2022-11-26T03:26:14.344Z,0.70
2022-11-26T03:27:14.341Z,0.68
2022-11-26T03:28:14.323Z,0.56
2022-11-26T03:29:14.336Z,0.60
2022-11-26T03:30:14.302Z,0.57
2022-11-26T03:31:14.312Z,0.72
2022-11-26T03:32:14.276Z,0.56
2022-11-26T03:33:14.274Z,0.53
2022-11-26T03:34:14.273Z,0.52
2022-11-26T03:35:14.248Z,0.51
2022-11-26T03:36:14.231Z,0.45
2022-11-26T03:37:14.223Z,0.52
2022-11-26T03:38:14.216Z,0.51
2022-11-26T03:39:14.199Z,0.49
2022-11-26T03:40:14.218Z,0.49
2022-11-26T03:41:14.185Z,0.53
2022-11-26T03:42:14.169Z,0.56
2022-11-26T03:43:14.164Z,0.48
2022-11-26T03:44:14.149Z,0.49
2022-11-26T03:45:14.165Z,0.57
2022-11-26T03:46:14.229Z,0.44
2022-11-26T03:47:14.122Z,0.59
2022-11-26T03:48:14.117Z,0.56
2022-11-26T03:49:14.096Z,0.49
2022-11-26T03:50:14.200Z,0.51
2022-11-26T03:51:14.075Z,0.53
2022-11-26T03:52:14.076Z,0.59
2022-11-26T03:53:14.059Z,0.52
2022-11-26T03:54:14.044Z,0.56
2022-11-26T03:55:14.038Z,0.62
2022-11-26T03:56:14.036Z,0.56
2022-11-26T03:57:14.011Z,0.52
2022-11-26T03:58:14.000Z,0.49
2022-11-26T03:59:13.997Z,0.44
2022-11-26T04:00:13.976Z,0.63
2022-11-26T04:01:14.153Z,0.49
2022-11-26T04:02:13.967Z,0.60
2022-11-26T04:03:14.023Z,0.56
2022-11-26T04:04:13.937Z,0.59
2022-11-26T04:05:13.925Z,0.44
2022-11-26T04:06:13.912Z,0.63
2022-11-26T04:07:13.978Z,0.51
2022-11-26T04:08:13.907Z,0.53
2022-11-26T04:09:13.884Z,0.48
2022-11-26T04:10:13.879Z,0.51
2022-11-26T04:11:13.866Z,0.62
2022-11-26T04:12:13.998Z,0.63
2022-11-26T04:13:13.838Z,0.57
2022-11-26T04:14:13.824Z,0.48
2022-11-26T04:15:13.817Z,0.67
2022-11-26T04:16:13.887Z,0.64
2022-11-26T04:17:13.821Z,0.52
2022-11-26T04:18:13.792Z,0.44
2022-11-26T04:19:13.779Z,0.53
2022-11-26T04:20:13.766Z,0.38
2022-11-26T04:21:13.770Z,0.51
2022-11-26T04:22:13.749Z,0.60
2022-11-26T04:23:13.729Z,0.60
2022-11-26T04:24:13.724Z,0.63
2022-11-26T04:25:13.706Z,0.64
2022-11-26T04:26:13.697Z,0.62
2022-11-26T04:27:13.707Z,0.57
2022-11-26T04:28:13.683Z,0.62
2022-11-26T04:29:13.668Z,0.60
2022-11-26T04:30:13.659Z,0.57
2022-11-26T04:31:13.731Z,0.57
2022-11-26T04:32:13.637Z,0.59
2022-11-26T04:33:13.665Z,0.64
2022-11-26T04:34:13.614Z,0.62
2022-11-26T04:35:13.608Z,0.56
2022-11-26T04:36:13.628Z,0.49
2022-11-26T04:37:13.602Z,0.57
2022-11-26T04:38:13.575Z,0.52
2022-11-26T04:39:13.572Z,0.34
2022-11-26T04:40:13.561Z,0.53
2022-11-26T04:41:13.552Z,0.52
2022-11-26T04:42:13.527Z,0.45
2022-11-26T04:43:13.519Z,0.37
2022-11-26T04:44:13.516Z,0.49
2022-11-26T04:45:13.495Z,0.38
2022-11-26T04:46:13.559Z,0.26
2022-11-26T04:47:13.472Z,0.33
2022-11-26T04:48:13.475Z,0.43
2022-11-26T04:49:13.474Z,0.31
2022-11-26T04:50:13.441Z,0.31
2022-11-26T04:51:13.432Z,0.30
2022-11-26T04:52:13.442Z,0.33
2022-11-26T04:53:13.405Z,0.31
2022-11-26T04:54:13.510Z,0.20
2022-11-26T04:55:13.388Z,0.31
2022-11-26T04:56:13.392Z,0.33
2022-11-26T04:57:13.370Z,0.25
2022-11-26T04:58:13.420Z,0.25
2022-11-26T04:59:13.341Z,0.31
2022-11-26T05:00:13.335Z,0.34
2022-11-26T05:01:13.359Z,0.37
2022-11-26T05:02:13.482Z,0.44
2022-11-26T05:03:13.302Z,0.34
2022-11-26T05:04:13.306Z,0.45
2022-11-26T05:05:13.304Z,0.34
2022-11-26T05:06:13.273Z,0.26
2022-11-26T05:07:13.336Z,0.37
2022-11-26T05:08:13.260Z,0.38
2022-11-26T05:09:13.236Z,0.49
2022-11-26T05:10:13.257Z,0.35
2022-11-26T05:11:13.220Z,0.44
2022-11-26T05:12:13.209Z,0.41
2022-11-26T05:13:13.194Z,0.41
2022-11-26T05:14:13.186Z,0.44
2022-11-26T05:15:13.174Z,0.52
2022-11-26T05:16:13.301Z,0.49
2022-11-26T05:17:13.150Z,0.40
2022-11-26T05:18:13.160Z,0.56
2022-11-26T05:19:13.131Z,0.44
2022-11-26T05:20:13.122Z,0.33
2022-11-26T05:21:13.136Z,0.35
2022-11-26T05:22:13.097Z,0.51
2022-11-26T05:23:13.092Z,0.45
2022-11-26T05:24:13.105Z,0.40
2022-11-26T05:25:13.066Z,0.59
2022-11-26T05:26:13.054Z,0.51
2022-11-26T05:27:13.043Z,0.53
2022-11-26T05:28:13.032Z,0.56
2022-11-26T05:29:13.084Z,0.48
2022-11-26T05:30:13.029Z,0.44
2022-11-26T05:31:13.044Z,0.25
2022-11-26T05:32:12.993Z,0.43
2022-11-26T05:33:12.983Z,0.41
2022-11-26T05:34:12.973Z,0.35
2022-11-26T05:35:12.981Z,0.38
2022-11-26T05:36:12.950Z,0.40
2022-11-26T05:37:12.964Z,0.57
2022-11-26T05:38:12.927Z,0.52
2022-11-26T05:39:12.918Z,0.56
2022-11-26T05:40:12.924Z,0.40
2022-11-26T05:41:12.903Z,0.49
2022-11-26T05:42:12.880Z,0.44
2022-11-26T05:43:12.871Z,0.48
2022-11-26T05:44:12.862Z,0.45
2022-11-26T05:45:12.850Z,0.51
2022-11-26T05:46:12.933Z,0.44
2022-11-26T05:47:12.842Z,0.38
2022-11-26T05:48:12.821Z,0.48
2022-11-26T05:49:12.808Z,0.38
2022-11-26T05:50:12.800Z,0.44
2022-11-26T05:51:12.786Z,0.51
2022-11-26T05:52:12.784Z,0.38
2022-11-26T05:53:12.800Z,0.37
2022-11-26T05:54:12.753Z,0.51
2022-11-26T05:55:12.743Z,0.56
2022-11-26T05:56:12.732Z,0.57
2022-11-26T05:57:12.734Z,0.62
2022-11-26T05:58:12.714Z,0.57
2022-11-26T05:59:12.697Z,0.57
2022-11-26T06:00:12.693Z,0.60
2022-11-26T06:01:12.678Z,0.53
2022-11-26T06:02:12.800Z,0.63
2022-11-26T06:03:15.757Z,0.60
2022-11-26T06:04:13.701Z,0.44
2022-11-26T06:05:12.640Z,0.57
2022-11-26T06:06:12.642Z,0.57
2022-11-26T06:07:12.698Z,0.57
2022-11-26T06:08:12.602Z,0.52
2022-11-26T06:09:12.619Z,0.51
2022-11-26T06:10:12.590Z,0.43
2022-11-26T06:11:12.572Z,0.44
2022-11-26T06:12:12.575Z,0.53
2022-11-26T06:13:12.568Z,0.48
2022-11-26T06:14:12.537Z,0.49
2022-11-26T06:15:12.524Z,0.31
2022-11-26T06:16:12.568Z,0.43
2022-11-26T06:17:12.526Z,0.48
2022-11-26T06:18:12.494Z,0.49
2022-11-26T06:19:12.486Z,0.49
2022-11-26T06:20:12.475Z,0.25
2022-11-26T06:21:12.466Z,0.45
2022-11-26T06:22:12.475Z,0.20
2022-11-26T06:23:12.455Z,0.22
2022-11-26T06:24:12.427Z,0.38
2022-11-26T06:25:12.448Z,0.37
2022-11-26T06:26:12.407Z,0.41
2022-11-26T06:27:12.400Z,0.40
2022-11-26T06:28:12.466Z,0.43
2022-11-26T06:29:12.382Z,0.35
2022-11-26T06:30:12.370Z,0.37
2022-11-26T06:31:12.421Z,0.33
2022-11-26T06:32:12.349Z,0.45
2022-11-26T06:33:12.336Z,0.35
2022-11-26T06:34:12.352Z,0.33
2022-11-26T06:35:12.331Z,0.33
2022-11-26T06:36:12.308Z,0.44
2022-11-26T06:37:12.297Z,0.49
2022-11-26T06:38:12.280Z,0.40
2022-11-26T06:39:12.276Z,0.52
2022-11-26T06:40:12.270Z,0.51
2022-11-26T06:41:12.293Z,0.56
2022-11-26T06:42:12.237Z,0.57
2022-11-26T06:43:12.231Z,0.43
2022-11-26T06:44:12.220Z,0.44
2022-11-26T06:45:12.223Z,0.59
2022-11-26T06:46:12.251Z,0.48
2022-11-26T06:47:12.197Z,0.44
2022-11-26T06:48:12.246Z,0.43
2022-11-26T06:49:12.166Z,0.41
2022-11-26T06:50:12.153Z,0.45
2022-11-26T06:51:12.160Z,0.60
2022-11-26T06:52:12.129Z,0.38
2022-11-26T06:53:12.132Z,0.41
2022-11-26T06:54:12.114Z,0.45
2022-11-26T06:55:12.112Z,0.45
2022-11-26T06:56:17.710Z,0.41
2022-11-26T06:57:13.115Z,0.48
2022-11-26T06:58:12.068Z,0.48
2022-11-26T06:59:12.061Z,0.67
2022-11-26T07:00:12.046Z,0.44
2022-11-26T07:01:12.085Z,0.43
2022-11-26T07:02:12.112Z,0.52
2022-11-26T07:03:12.013Z,0.48
2022-11-26T07:04:12.014Z,0.62
2022-11-26T07:05:11.998Z,0.57
2022-11-26T07:06:12.053Z,0.56
2022-11-26T07:07:12.061Z,0.63
2022-11-26T07:08:11.964Z,0.53
2022-11-26T07:09:11.948Z,0.49
2022-11-26T07:10:11.959Z,0.51
2022-11-26T07:11:11.997Z,0.49
2022-11-26T07:12:11.917Z,0.49
2022-11-26T07:13:11.928Z,0.60
2022-11-26T07:14:11.988Z,0.49
2022-11-26T07:15:11.895Z,0.53
2022-11-26T07:16:12.047Z,0.60
2022-11-26T07:17:11.863Z,0.45
2022-11-26T07:18:11.851Z,0.57
2022-11-26T07:19:11.849Z,0.68
2022-11-26T07:20:11.849Z,0.59
2022-11-26T07:21:11.827Z,0.64
2022-11-26T07:22:11.811Z,0.64
2022-11-26T07:23:11.798Z,0.53
2022-11-26T07:24:11.792Z,0.51
2022-11-26T07:25:12.946Z,0.57
2022-11-26T07:26:11.786Z,0.57
2022-11-26T07:27:11.753Z,0.51
2022-11-26T07:28:11.763Z,0.59
2022-11-26T07:29:11.755Z,0.38
2022-11-26T07:30:11.728Z,0.62
2022-11-26T07:31:16.406Z,0.52
2022-11-26T07:32:12.705Z,0.44
2022-11-26T07:33:11.689Z,0.59
2022-11-26T07:34:11.691Z,0.53
2022-11-26T07:35:11.676Z,0.62
2022-11-26T07:36:11.663Z,0.45
2022-11-26T07:37:11.663Z,0.45
2022-11-26T07:38:11.653Z,0.57
2022-11-26T07:39:11.624Z,0.67
2022-11-26T07:40:11.616Z,0.59
2022-11-26T07:41:11.609Z,0.63
2022-11-26T07:42:11.603Z,0.72
2022-11-26T07:43:11.629Z,0.56
2022-11-26T07:44:11.604Z,0.57
2022-11-26T07:45:11.590Z,0.59
2022-11-26T07:46:11.611Z,0.67
2022-11-26T07:47:11.557Z,0.62
2022-11-26T07:48:16.745Z,0.63
2022-11-26T07:49:12.522Z,0.74
2022-11-26T07:50:11.507Z,0.62
2022-11-26T07:51:11.500Z,0.59
2022-11-26T07:52:11.490Z,0.57
2022-11-26T07:53:11.487Z,0.67
2022-11-26T07:54:11.465Z,0.68
2022-11-26T07:55:12.737Z,0.51
2022-11-26T07:56:11.444Z,0.72
2022-11-26T07:57:11.440Z,0.70
2022-11-26T07:58:11.428Z,0.70
2022-11-26T07:59:11.416Z,0.77
2022-11-26T08:00:11.412Z,0.71
2022-11-26T08:01:11.474Z,0.64
2022-11-26T08:02:11.500Z,0.68
2022-11-26T08:03:11.367Z,0.67
2022-11-26T08:04:11.359Z,0.64
2022-11-26T08:05:11.348Z,0.77
2022-11-26T08:06:11.348Z,0.71
2022-11-26T08:07:12.026Z,0.70
2022-11-26T08:08:11.401Z,0.74
2022-11-26T08:09:11.304Z,0.72
2022-11-26T08:10:11.298Z,0.67
2022-11-26T08:11:11.296Z,0.60
2022-11-26T08:12:11.274Z,0.71
2022-11-26T08:13:11.264Z,0.75
2022-11-26T08:14:11.251Z,0.77
2022-11-26T08:15:11.237Z,0.75
2022-11-26T08:16:11.278Z,0.64
2022-11-26T08:17:11.257Z,0.68
2022-11-26T08:18:11.223Z,0.84
2022-11-26T08:19:11.196Z,0.86
2022-11-26T08:20:11.242Z,0.88
2022-11-26T08:21:11.175Z,0.86
2022-11-26T08:22:11.166Z,0.84
2022-11-26T08:23:11.378Z,0.88
2022-11-26T08:24:11.146Z,0.93
2022-11-26T08:25:11.129Z,0.86
2022-11-26T08:26:23.730Z,0.81
2022-11-26T08:27:12.115Z,0.86
2022-11-26T08:28:11.120Z,0.81
2022-11-26T08:29:11.088Z,0.74
2022-11-26T08:30:11.094Z,0.81
2022-11-26T08:31:11.233Z,0.86
2022-11-26T08:32:11.062Z,0.67
2022-11-26T08:33:11.076Z,0.52
2022-11-26T08:34:11.054Z,0.71
2022-11-26T08:35:11.025Z,0.71
2022-11-26T08:36:11.014Z,0.67
2022-11-26T08:37:11.002Z,0.63
2022-11-26T08:38:10.991Z,0.75
2022-11-26T08:39:10.982Z,0.80
2022-11-26T08:40:13.827Z,0.74
2022-11-26T08:41:10.968Z,0.90
2022-11-26T08:42:10.950Z,0.86
2022-11-26T08:43:10.935Z,0.84
2022-11-26T08:44:10.997Z,0.68
2022-11-26T08:45:10.927Z,0.75
2022-11-26T08:46:10.950Z,0.68
2022-11-26T08:47:10.897Z,0.74
2022-11-26T08:48:10.897Z,0.82
2022-11-26T08:49:10.913Z,0.71
2022-11-26T08:50:10.875Z,0.62
2022-11-26T08:51:10.868Z,0.62
2022-11-26T08:52:10.842Z,0.70
2022-11-26T08:53:10.833Z,0.51
2022-11-26T08:54:10.836Z,0.57
2022-11-26T08:55:10.810Z,0.53
2022-11-26T08:56:10.800Z,0.51
2022-11-26T08:57:10.805Z,0.48
2022-11-26T08:58:10.778Z,0.68
2022-11-26T08:59:10.763Z,0.59
2022-11-26T09:00:10.768Z,0.71
2022-11-26T09:01:10.891Z,0.67
2022-11-26T09:02:12.869Z,0.72
2022-11-26T09:03:11.799Z,0.64
2022-11-26T09:04:10.708Z,0.68
2022-11-26T09:05:10.732Z,0.67
2022-11-26T09:06:10.697Z,0.71
2022-11-26T09:07:10.759Z,0.75
2022-11-26T09:08:10.675Z,0.72
2022-11-26T09:09:10.672Z,0.84
2022-11-26T09:10:10.650Z,0.84
2022-11-26T09:11:10.638Z,0.96
2022-11-26T09:12:10.628Z,0.88
2022-11-26T09:13:10.616Z,0.93
2022-11-26T09:14:10.656Z,0.89
2022-11-26T09:15:10.659Z,0.90
2022-11-26T09:16:10.663Z,0.89
2022-11-26T09:17:10.573Z,0.90
2022-11-26T09:18:10.566Z,1.10
2022-11-26T09:19:10.555Z,1.17
2022-11-26T09:20:10.560Z,1.07
2022-11-26T09:21:10.571Z,1.31
2022-11-26T09:22:10.523Z,1.39
2022-11-26T09:23:10.512Z,1.53
2022-11-26T09:24:10.500Z,1.56
2022-11-26T09:25:10.500Z,1.68
2022-11-26T09:26:10.485Z,1.47
2022-11-26T09:27:10.469Z,1.29
2022-11-26T09:28:17.986Z,1.35
2022-11-26T09:29:17.992Z,1.28
2022-11-26T09:30:10.435Z,1.52
2022-11-26T09:31:18.017Z,1.52
2022-11-26T09:32:29.676Z,1.39
2022-11-26T09:33:11.399Z,1.38
2022-11-26T09:34:17.932Z,1.28
2022-11-26T09:35:17.920Z,1.43
2022-11-26T09:36:10.392Z,1.49
2022-11-26T09:37:10.400Z,1.43
2022-11-26T09:38:10.374Z,1.39
2022-11-26T09:39:10.345Z,1.32
2022-11-26T09:40:10.329Z,1.47
2022-11-26T09:41:10.329Z,1.53
2022-11-26T09:42:10.305Z,1.65
2022-11-26T09:43:10.297Z,2.30
2022-11-26T09:44:10.278Z,2.59
2022-11-26T09:45:10.278Z,2.38
2022-11-26T09:46:10.354Z,2.30
2022-11-26T09:47:12.863Z,2.09
2022-11-26T09:48:10.239Z,1.90
2022-11-26T09:49:10.237Z,2.01
2022-11-26T09:50:10.214Z,2.36
2022-11-26T09:51:10.203Z,2.90
2022-11-26T09:52:10.226Z,3.28
2022-11-26T09:53:10.211Z,3.01
2022-11-26T09:54:10.172Z,3.01
2022-11-26T09:55:10.172Z,2.76
2022-11-26T09:56:10.151Z,2.55
2022-11-26T09:57:10.153Z,3.37
2022-11-26T09:58:10.138Z,3.95
2022-11-26T09:59:10.121Z,4.21
2022-11-26T10:00:10.107Z,3.95
2022-11-26T10:01:10.162Z,4.36
2022-11-26T10:02:10.171Z,3.71
2022-11-26T10:03:10.098Z,3.16
2022-11-26T10:04:10.066Z,2.97
2022-11-26T10:05:10.055Z,3.88
2022-11-26T10:06:10.046Z,4.28
2022-11-26T10:07:10.053Z,3.95
2022-11-26T10:08:10.017Z,3.25
2022-11-26T10:09:10.054Z,2.80
2022-11-26T10:10:09.999Z,3.12
2022-11-26T10:11:09.993Z,3.62
2022-11-26T10:12:19.969Z,3.88
2022-11-26T10:13:19.186Z,3.12
2022-11-26T10:14:10.976Z,2.73
2022-11-26T10:15:09.949Z,2.98
2022-11-26T10:16:09.974Z,3.88
2022-11-26T10:17:09.919Z,4.62
2022-11-26T10:18:09.915Z,5.12
2022-11-26T10:19:09.905Z,5.15
2022-11-26T10:20:09.897Z,4.65
2022-11-26T10:21:09.880Z,4.68
2022-11-26T10:22:09.880Z,5.22
2022-11-26T10:23:09.858Z,5.63
2022-11-26T10:24:09.849Z,5.70
2022-11-26T10:25:09.865Z,5.58
2022-11-26T10:26:09.824Z,5.75
2022-11-26T10:27:09.822Z,5.30
2022-11-26T10:28:09.813Z,5.11
2022-11-26T10:29:09.796Z,6.11
2022-11-26T10:30:09.778Z,6.54
2022-11-26T10:31:09.785Z,6.65
2022-11-26T10:32:09.861Z,6.82
2022-11-26T10:33:09.756Z,6.40
2022-11-26T10:34:09.741Z,5.87
2022-11-26T10:35:09.725Z,5.51
2022-11-26T10:36:09.721Z,5.74
2022-11-26T10:37:09.704Z,6.27
2022-11-26T10:38:09.712Z,6.65
2022-11-26T10:39:09.690Z,6.75
2022-11-26T10:40:09.668Z,7.01
2022-11-26T10:41:09.686Z,6.35
2022-11-26T10:42:09.652Z,6.08
2022-11-26T10:43:09.641Z,6.17
2022-11-26T10:44:09.648Z,6.21
2022-11-26T10:45:12.348Z,6.53
2022-11-26T10:46:09.665Z,6.65
2022-11-26T10:47:09.598Z,6.27
2022-11-26T10:48:09.584Z,5.95
2022-11-26T10:49:09.577Z,5.60
2022-11-26T10:50:31.906Z,5.30
2022-11-26T10:51:10.554Z,5.05
2022-11-26T10:52:09.537Z,4.99
2022-11-26T10:53:09.534Z,5.67
2022-11-26T10:54:09.532Z,5.77
2022-11-26T10:55:09.504Z,5.95
2022-11-26T10:56:09.496Z,6.28
2022-11-26T10:57:09.509Z,6.43
2022-11-26T10:58:09.481Z,6.33
2022-11-26T10:59:09.497Z,6.35
2022-11-26T11:00:09.460Z,6.68
2022-11-26T11:01:09.527Z,7.00
2022-11-26T11:02:09.470Z,6.71
2022-11-26T11:03:09.419Z,6.72
2022-11-26T11:04:09.482Z,6.89
2022-11-26T11:05:09.419Z,7.12
2022-11-26T11:06:09.388Z,6.81
2022-11-26T11:07:12.036Z,6.90
2022-11-26T11:08:09.367Z,6.82
2022-11-26T11:09:09.362Z,6.63
2022-11-26T11:10:09.354Z,6.60
2022-11-26T11:11:09.334Z,6.76
2022-11-26T11:12:09.325Z,6.58
2022-11-26T11:13:09.339Z,5.99
2022-11-26T11:14:09.299Z,5.95
2022-11-26T11:15:09.293Z,6.08
2022-11-26T11:16:09.319Z,5.80
2022-11-26T11:17:09.268Z,5.87
2022-11-26T11:18:09.255Z,6.16
2022-11-26T11:19:09.245Z,6.14
2022-11-26T11:20:09.246Z,6.21
2022-11-26T11:21:09.225Z,6.45
2022-11-26T11:22:09.226Z,6.28
2022-11-26T11:23:09.204Z,6.20
2022-11-26T11:24:09.601Z,5.95
2022-11-26T11:25:09.184Z,5.85
2022-11-26T11:26:09.171Z,5.42
2022-11-26T11:27:09.172Z,5.15
2022-11-26T11:28:12.345Z,5.19
2022-11-26T11:29:09.166Z,4.88
2022-11-26T11:30:09.131Z,5.08
2022-11-26T11:31:09.187Z,5.51
2022-11-26T11:32:09.220Z,5.59
2022-11-26T11:33:09.097Z,5.85
2022-11-26T11:34:09.086Z,5.69
2022-11-26T11:35:09.077Z,5.56
2022-11-26T11:36:09.066Z,5.56
2022-11-26T11:37:14.418Z,5.84
2022-11-26T11:38:10.046Z,5.81
2022-11-26T11:39:09.027Z,5.70
2022-11-26T11:40:12.990Z,5.62
2022-11-26T11:41:10.006Z,5.80
2022-11-26T11:42:09.011Z,5.84
2022-11-26T11:43:08.988Z,6.32
2022-11-26T11:44:08.977Z,6.75
2022-11-26T11:45:08.984Z,5.88
2022-11-26T11:46:09.010Z,5.44
2022-11-26T11:47:08.936Z,5.70
2022-11-26T11:48:08.953Z,5.58
2022-11-26T11:49:08.921Z,5.45
2022-11-26T11:50:08.919Z,5.63
2022-11-26T11:51:08.899Z,5.73
2022-11-26T11:52:08.890Z,5.84
2022-11-26T11:53:08.873Z,6.08
2022-11-26T11:54:08.864Z,5.66
2022-11-26T11:55:08.858Z,5.20
2022-11-26T11:56:08.852Z,5.09
2022-11-26T11:57:08.831Z,4.84
2022-11-26T11:58:08.821Z,4.74
2022-11-26T11:59:08.810Z,4.79
2022-11-26T12:00:08.812Z,4.72
2022-11-26T12:01:08.833Z,4.88
2022-11-26T12:02:08.882Z,5.01
2022-11-26T12:03:10.659Z,5.11
2022-11-26T12:04:09.557Z,5.42
2022-11-26T12:05:08.783Z,5.67
2022-11-26T12:06:08.753Z,5.95
2022-11-26T12:07:08.806Z,6.25
2022-11-26T12:08:08.711Z,6.35
2022-11-26T12:09:08.702Z,6.25
2022-11-26T12:10:08.692Z,6.40
2022-11-26T12:11:08.682Z,6.54
2022-11-26T12:12:08.677Z,6.81
2022-11-26T12:13:08.661Z,6.40
2022-11-26T12:14:08.645Z,6.33
2022-11-26T12:15:08.634Z,6.39
2022-11-26T12:16:08.660Z,6.90
2022-11-26T12:17:08.679Z,6.36
2022-11-26T12:18:08.606Z,6.03
2022-11-26T12:19:08.603Z,6.06
2022-11-26T12:20:08.584Z,6.19
2022-11-26T12:21:08.577Z,6.32
2022-11-26T12:22:08.553Z,5.96
2022-11-26T12:23:13.067Z,5.73
2022-11-26T12:24:09.537Z,5.48
2022-11-26T12:25:08.528Z,5.59
2022-11-26T12:26:08.517Z,6.24
2022-11-26T12:27:08.512Z,6.64
2022-11-26T12:28:08.492Z,6.83
2022-11-26T12:29:08.477Z,6.57
2022-11-26T12:30:08.475Z,6.58
2022-11-26T12:31:08.460Z,6.68
2022-11-26T12:32:08.482Z,6.79
2022-11-26T12:33:08.472Z,6.68
2022-11-26T12:34:09.059Z,6.87
2022-11-26T12:35:08.417Z,6.63
2022-11-26T12:36:08.406Z,6.35
2022-11-26T12:37:08.388Z,6.11
2022-11-26T12:38:08.394Z,5.73
2022-11-26T12:39:08.383Z,5.65
2022-11-26T12:40:08.359Z,5.90
2022-11-26T12:41:08.349Z,6.60
2022-11-26T12:42:08.341Z,6.64
2022-11-26T12:43:08.333Z,6.13
2022-11-26T12:44:08.319Z,6.48
2022-11-26T12:45:09.036Z,6.94
2022-11-26T12:46:08.370Z,7.08
2022-11-26T12:47:08.281Z,6.99
2022-11-26T12:48:08.274Z,6.91
2022-11-26T12:49:08.296Z,6.94
2022-11-26T12:50:08.252Z,6.94
2022-11-26T12:51:08.241Z,6.94
2022-11-26T12:52:08.230Z,6.73
2022-11-26T12:53:08.220Z,6.19
2022-11-26T12:54:08.209Z,5.80
2022-11-26T12:55:08.209Z,5.65
2022-11-26T12:56:08.198Z,5.33
2022-11-26T12:57:08.174Z,5.15
2022-11-26T12:58:08.177Z,4.74
2022-11-26T12:59:08.172Z,4.68
2022-11-26T13:00:08.146Z,4.50
2022-11-26T13:01:08.208Z,4.61
2022-11-26T13:02:08.211Z,4.62
2022-11-26T13:03:08.112Z,4.84
2022-11-26T13:04:36.093Z,4.74
2022-11-26T13:05:09.109Z,4.75
2022-11-26T13:06:08.071Z,4.67
2022-11-26T13:07:08.070Z,4.57
2022-11-26T13:08:08.075Z,4.36
2022-11-26T13:09:08.050Z,4.39
2022-11-26T13:10:08.033Z,4.50
2022-11-26T13:11:10.025Z,4.42
2022-11-26T13:12:08.008Z,4.35
2022-11-26T13:13:08.015Z,4.50
2022-11-26T13:14:08.007Z,4.54
2022-11-26T13:15:07.979Z,4.57
2022-11-26T13:16:08.067Z,4.49
2022-11-26T13:17:07.967Z,4.47
2022-11-26T13:18:07.936Z,4.24